Urb El Vedado, Puerto Rico
Current Conditions -  °F | °C
As of 12:56 PM on Saturday 27 Dec 2014 (Local Time) from TJSJ Reporting Station
Scattered Clouds Scattered Clouds  
Wind Chill: 82°   Ceiling: Unl
Heat Index: 85°   Visibility: 10mi
Dew Point: 69°   Wind: 13mph
Humidity: 65%   Direction: 60°ENE
Pressure: 30.08"   Gusts: NA
Location:  18.417°N, 66.0617°W
Report Text: TJSJ 271656Z 06011KT 10SM FEW035 SCT047 SCT065 28/21 A3008 RMK AO2 SLP184 T02780206
Loading
Personal Weather Stations






























Interactive Weather Map New forecast layout! Learn more

10-Day Weather Forecast

Advertisements
Track Severe Weather on mobile